• Join FlightAware (Why Join?)
  • Login
  • US Flag 
03:08PM EDT


 

Airport Tracker/Info


-or-


 

Live Flight TrackerFlight Track Log ✈ SVA1480 ✈ 21-Nov-2013 ✈ OEPA / AQI - OERK / RUH

Flight Track Log - Related Links

Times and Time Zones

All times are in EST time to prevent confusion due to time zone crossing. See the SVA1480 flight status page for this flight to view local times or setup timezone preferences in your user account.

Time Position Orientation Groundspeed Altitude Reporting Facility
EST Latitude Longitude Course Direction KTS MPH feet Rate Location/Type
11:58PM 27.3234 46.3006 171° South  Level Estimated
11:59PM 27.2391 46.3151 171° South  Level Estimated
12:00AM 27.1548 46.3295 171° South  Level Estimated
12:01AM 27.0704 46.3440 171° South  Level Estimated
12:02AM 26.9861 46.3584 171° South  Level Estimated
12:03AM 26.9018 46.3728 171° South  Level Estimated
12:04AM 26.8174 46.3871 171° South  Level Estimated
12:05AM 26.7331 46.4015 171° South  Level Estimated
12:06AM 26.6488 46.4158 171° South  Level Estimated
12:07AM 26.5644 46.4301 171° South  Level Estimated
12:08AM 26.4801 46.4444 171° South  Level Estimated
12:09AM 26.3958 46.4587 171° South  Level Estimated
12:10AM 26.3114 46.4729 171° South  Level Estimated
12:11AM 26.2271 46.4871 171° South  Level Estimated
12:12AM 26.1427 46.5013 171° South  Level Estimated
12:13AM 26.0584 46.5155 171° South  Level Estimated
12:14AM 25.9741 46.5297 171° South  Level Estimated
12:15AM 25.8897 46.5438 171° South  Level Estimated
12:16AM 25.8054 46.5579 171° South  Level Estimated
12:17AM 25.7210 46.5720 171° South  Level Estimated
12:18AM 25.6367 46.5861 171° South  Level Estimated
12:19AM 25.5523 46.6002 171° South  Level Estimated
12:20AM 25.4680 46.6142 171° South  Level Estimated
12:21AM 25.3836 46.6283 171° South  Level Estimated
12:22AM 25.2992 46.6423 171° South  Level Estimated
12:23AM 25.2149 46.6562 171° South  Level Estimated
12:24AM 25.1305 46.6702 171° South  Level Estimated
12:25AM 25.0462 46.6842 171° South  Level Estimated
12:26AM 24.9618 46.6981 171° South  Level Estimated
12:27AM 24.9576 46.6988 172° South  Level Estimated
12:28AM 24.9576 46.6988 270° West  Level Estimated
12:29AM 24.9576 46.6988 270° West  Level Estimated
12:30AM 24.9576 46.6988 270° West  Level Estimated
12:31AM 24.9576 46.6988 270° West  Level Estimated
12:32AM 24.9576 46.6988 270° West  Level Estimated
12:33AM 24.9576 46.6988 270° West  Level Estimated
12:34AM 24.9576 46.6988 270° West  Level Estimated
12:35AM 24.9576 46.6988 270° West  Level Estimated